Klang, Malaysia
Current Conditions -  °F | °C
As of 5:00 PM on Sunday 26 Oct 2014 (Local Time) from WMSA Reporting Station
Thunderstorm Thunderstorm  
Wind Chill: 79°   Ceiling: 26000
Heat Index: 83°   Visibility: 0.62mi
Dew Point: 77°   Wind: 9mph
Humidity: 94%   Direction: 300°WNW
Pressure: 29.77"   Gusts: NA
Location:  3.04°N, 101.45°E
Report Text: WMSA 260900Z 30008KT 280V010 1000 +TSRA FEW008 FEW017CB SCT025 OVC260 26/25 Q1008
Loading
Personal Weather Stations






























Interactive Weather Map
Tropical Storm Tracking
New forecast layout! Learn more

10-Day Weather Forecast

Advertisements
Track Severe Weather on mobile